sensor_id;sensor_type;location;lat;lon;timestamp;P1;durP1;ratioP1;P2;durP2;ratioP2
6149;SDS011;3106;42.670;23.318;2024-03-07T00:01:06;43.90;;;21.47;;
6149;SDS011;3106;42.670;23.318;2024-03-07T00:03:32;37.00;;;20.43;;
6149;SDS011;3106;42.670;23.318;2024-03-07T00:05:59;48.37;;;23.27;;
6149;SDS011;3106;42.670;23.318;2024-03-07T00:08:27;42.33;;;23.30;;
6149;SDS011;3106;42.670;23.318;2024-03-07T00:10:57;43.63;;;24.77;;
6149;SDS011;3106;42.670;23.318;2024-03-07T00:13:23;43.57;;;23.57;;
6149;SDS011;3106;42.670;23.318;2024-03-07T00:15:50;41.50;;;23.67;;
6149;SDS011;3106;42.670;23.318;2024-03-07T00:18:17;42.43;;;21.97;;
6149;SDS011;3106;42.670;23.318;2024-03-07T00:20:44;44.00;;;22.10;;
6149;SDS011;3106;42.670;23.318;2024-03-07T00:23:11;40.60;;;21.40;;
6149;SDS011;3106;42.670;23.318;2024-03-07T00:25:38;38.90;;;20.67;;
6149;SDS011;3106;42.670;23.318;2024-03-07T00:28:06;43.00;;;22.30;;
6149;SDS011;3106;42.670;23.318;2024-03-07T00:30:33;41.20;;;22.03;;
6149;SDS011;3106;42.670;23.318;2024-03-07T00:33:00;43.90;;;22.20;;
6149;SDS011;3106;42.670;23.318;2024-03-07T00:35:26;41.27;;;21.27;;
6149;SDS011;3106;42.670;23.318;2024-03-07T00:37:54;43.60;;;21.77;;
6149;SDS011;3106;42.670;23.318;2024-03-07T00:40:21;35.90;;;19.37;;
6149;SDS011;3106;42.670;23.318;2024-03-07T00:42:48;41.87;;;20.90;;
6149;SDS011;3106;42.670;23.318;2024-03-07T00:45:17;37.90;;;20.23;;
6149;SDS011;3106;42.670;23.318;2024-03-07T00:47:43;36.50;;;20.30;;
6149;SDS011;3106;42.670;23.318;2024-03-07T00:50:10;35.70;;;19.13;;
6149;SDS011;3106;42.670;23.318;2024-03-07T00:52:37;33.77;;;19.00;;
6149;SDS011;3106;42.670;23.318;2024-03-07T00:55:04;34.40;;;18.70;;
6149;SDS011;3106;42.670;23.318;2024-03-07T00:57:33;36.67;;;19.57;;
6149;SDS011;3106;42.670;23.318;2024-03-07T01:00:00;36.90;;;19.37;;
6149;SDS011;3106;42.670;23.318;2024-03-07T01:02:29;35.47;;;19.50;;
6149;SDS011;3106;42.670;23.318;2024-03-07T01:04:56;36.10;;;20.07;;
6149;SDS011;3106;42.670;23.318;2024-03-07T01:07:23;36.30;;;18.20;;
6149;SDS011;3106;42.670;23.318;2024-03-07T01:09:49;36.20;;;19.83;;
6149;SDS011;3106;42.670;23.318;2024-03-07T01:12:16;35.60;;;19.40;;
6149;SDS011;3106;42.670;23.318;2024-03-07T01:14:45;32.80;;;18.47;;
6149;SDS011;3106;42.670;23.318;2024-03-07T01:17:13;31.53;;;18.40;;
6149;SDS011;3106;42.670;23.318;2024-03-07T01:19:41;35.17;;;18.43;;
6149;SDS011;3106;42.670;23.318;2024-03-07T01:22:08;34.33;;;19.67;;
6149;SDS011;3106;42.670;23.318;2024-03-07T01:24:35;38.67;;;19.57;;
6149;SDS011;3106;42.670;23.318;2024-03-07T01:27:02;35.53;;;18.63;;
6149;SDS011;3106;42.670;23.318;2024-03-07T01:29:29;34.67;;;19.27;;
6149;SDS011;3106;42.670;23.318;2024-03-07T01:31:56;38.70;;;20.27;;
6149;SDS011;3106;42.670;23.318;2024-03-07T01:34:23;33.37;;;19.40;;
6149;SDS011;3106;42.670;23.318;2024-03-07T01:36:51;31.83;;;17.90;;
6149;SDS011;3106;42.670;23.318;2024-03-07T01:39:17;35.63;;;18.53;;
6149;SDS011;3106;42.670;23.318;2024-03-07T01:41:44;49.40;;;20.50;;
6149;SDS011;3106;42.670;23.318;2024-03-07T01:44:11;34.70;;;18.77;;
6149;SDS011;3106;42.670;23.318;2024-03-07T01:46:38;31.20;;;17.60;;
6149;SDS011;3106;42.670;23.318;2024-03-07T01:49:06;41.83;;;18.83;;
6149;SDS011;3106;42.670;23.318;2024-03-07T01:51:34;33.20;;;18.13;;
6149;SDS011;3106;42.670;23.318;2024-03-07T01:54:03;37.73;;;17.83;;
6149;SDS011;3106;42.670;23.318;2024-03-07T01:56:31;37.00;;;18.17;;
6149;SDS011;3106;42.670;23.318;2024-03-07T01:58:58;36.67;;;18.73;;
6149;SDS011;3106;42.670;23.318;2024-03-07T02:01:27;32.60;;;18.23;;
6149;SDS011;3106;42.670;23.318;2024-03-07T02:03:54;31.80;;;18.10;;
6149;SDS011;3106;42.670;23.318;2024-03-07T02:06:21;28.37;;;16.53;;
6149;SDS011;3106;42.670;23.318;2024-03-07T02:08:49;35.27;;;18.60;;
6149;SDS011;3106;42.670;23.318;2024-03-07T02:11:17;31.10;;;17.37;;
6149;SDS011;3106;42.670;23.318;2024-03-07T02:13:44;32.30;;;17.10;;
6149;SDS011;3106;42.670;23.318;2024-03-07T02:16:11;33.70;;;18.63;;
6149;SDS011;3106;42.670;23.318;2024-03-07T02:18:39;31.93;;;16.30;;
6149;SDS011;3106;42.670;23.318;2024-03-07T02:21:07;30.30;;;16.30;;
6149;SDS011;3106;42.670;23.318;2024-03-07T02:23:36;34.13;;;18.10;;
6149;SDS011;3106;42.670;23.318;2024-03-07T02:26:03;30.77;;;16.47;;
6149;SDS011;3106;42.670;23.318;2024-03-07T02:28:30;34.13;;;15.70;;
6149;SDS011;3106;42.670;23.318;2024-03-07T02:30:57;26.50;;;13.23;;
6149;SDS011;3106;42.670;23.318;2024-03-07T02:33:23;15.43;;;8.90;;
6149;SDS011;3106;42.670;23.318;2024-03-07T02:35:50;15.97;;;9.93;;
6149;SDS011;3106;42.670;23.318;2024-03-07T02:38:18;14.20;;;7.93;;
6149;SDS011;3106;42.670;23.318;2024-03-07T02:40:45;11.70;;;6.60;;
6149;SDS011;3106;42.670;23.318;2024-03-07T02:43:12;10.93;;;6.50;;
6149;SDS011;3106;42.670;23.318;2024-03-07T02:45:39;6.03;;;4.40;;
6149;SDS011;3106;42.670;23.318;2024-03-07T02:48:06;4.43;;;3.40;;
6149;SDS011;3106;42.670;23.318;2024-03-07T02:50:34;4.93;;;3.50;;
6149;SDS011;3106;42.670;23.318;2024-03-07T02:53:02;5.97;;;3.50;;
6149;SDS011;3106;42.670;23.318;2024-03-07T02:55:31;3.70;;;2.93;;
6149;SDS011;3106;42.670;23.318;2024-03-07T02:57:57;3.23;;;2.53;;
6149;SDS011;3106;42.670;23.318;2024-03-07T03:00:24;2.40;;;2.20;;
6149;SDS011;3106;42.670;23.318;2024-03-07T03:02:56;3.77;;;2.37;;
6149;SDS011;3106;42.670;23.318;2024-03-07T03:05:23;2.50;;;2.27;;
6149;SDS011;3106;42.670;23.318;2024-03-07T03:07:49;2.93;;;2.17;;
6149;SDS011;3106;42.670;23.318;2024-03-07T03:10:20;3.60;;;2.40;;
6149;SDS011;3106;42.670;23.318;2024-03-07T03:12:51;5.93;;;2.13;;
6149;SDS011;3106;42.670;23.318;2024-03-07T03:15:19;3.57;;;2.47;;
6149;SDS011;3106;42.670;23.318;2024-03-07T03:17:46;2.77;;;2.53;;
6149;SDS011;3106;42.670;23.318;2024-03-07T03:20:13;3.97;;;2.67;;
6149;SDS011;3106;42.670;23.318;2024-03-07T03:22:49;4.70;;;2.80;;
6149;SDS011;3106;42.670;23.318;2024-03-07T03:25:17;4.70;;;2.37;;
6149;SDS011;3106;42.670;23.318;2024-03-07T03:27:44;4.47;;;2.40;;
6149;SDS011;3106;42.670;23.318;2024-03-07T03:30:13;3.40;;;2.23;;
6149;SDS011;3106;42.670;23.318;2024-03-07T03:32:41;3.90;;;2.40;;
6149;SDS011;3106;42.670;23.318;2024-03-07T03:35:08;5.10;;;2.60;;
6149;SDS011;3106;42.670;23.318;2024-03-07T03:37:38;3.03;;;2.50;;
6149;SDS011;3106;42.670;23.318;2024-03-07T03:40:07;4.37;;;3.20;;
6149;SDS011;3106;42.670;23.318;2024-03-07T03:42:35;6.93;;;3.70;;
6149;SDS011;3106;42.670;23.318;2024-03-07T03:45:02;3.80;;;2.70;;
6149;SDS011;3106;42.670;23.318;2024-03-07T03:47:34;5.70;;;3.73;;
6149;SDS011;3106;42.670;23.318;2024-03-07T03:50:02;5.93;;;2.63;;
6149;SDS011;3106;42.670;23.318;2024-03-07T03:52:30;4.73;;;2.90;;
6149;SDS011;3106;42.670;23.318;2024-03-07T03:54:57;5.00;;;3.00;;
6149;SDS011;3106;42.670;23.318;2024-03-07T03:57:24;3.93;;;2.83;;
6149;SDS011;3106;42.670;23.318;2024-03-07T03:59:51;5.70;;;3.03;;
6149;SDS011;3106;42.670;23.318;2024-03-07T04:02:18;4.20;;;2.87;;
6149;SDS011;3106;42.670;23.318;2024-03-07T04:04:46;4.63;;;2.83;;
6149;SDS011;3106;42.670;23.318;2024-03-07T04:07:13;3.13;;;2.70;;
6149;SDS011;3106;42.670;23.318;2024-03-07T04:09:41;3.67;;;2.63;;
6149;SDS011;3106;42.670;23.318;2024-03-07T04:12:06;4.17;;;2.97;;
6149;SDS011;3106;42.670;23.318;2024-03-07T04:14:35;5.80;;;2.90;;
6149;SDS011;3106;42.670;23.318;2024-03-07T04:17:02;3.40;;;2.70;;
6149;SDS011;3106;42.670;23.318;2024-03-07T04:19:30;2.63;;;2.30;;
6149;SDS011;3106;42.670;23.318;2024-03-07T04:21:59;4.43;;;2.57;;
6149;SDS011;3106;42.670;23.318;2024-03-07T04:24:26;2.10;;;1.90;;
6149;SDS011;3106;42.670;23.318;2024-03-07T04:26:53;3.10;;;2.50;;
6149;SDS011;3106;42.670;23.318;2024-03-07T04:29:20;6.03;;;2.37;;
6149;SDS011;3106;42.670;23.318;2024-03-07T04:31:46;3.23;;;2.50;;
6149;SDS011;3106;42.670;23.318;2024-03-07T04:34:13;3.40;;;2.30;;
6149;SDS011;3106;42.670;23.318;2024-03-07T04:36:40;2.73;;;2.10;;
6149;SDS011;3106;42.670;23.318;2024-03-07T04:39:08;2.30;;;2.00;;
6149;SDS011;3106;42.670;23.318;2024-03-07T04:41:50;2.60;;;2.00;;
6149;SDS011;3106;42.670;23.318;2024-03-07T04:44:17;2.30;;;1.90;;
6149;SDS011;3106;42.670;23.318;2024-03-07T04:46:44;1.80;;;1.60;;
6149;SDS011;3106;42.670;23.318;2024-03-07T04:49:11;1.87;;;1.70;;
6149;SDS011;3106;42.670;23.318;2024-03-07T04:51:38;1.50;;;1.40;;
6149;SDS011;3106;42.670;23.318;2024-03-07T04:54:05;1.50;;;1.40;;
6149;SDS011;3106;42.670;23.318;2024-03-07T04:56:33;1.50;;;1.40;;
6149;SDS011;3106;42.670;23.318;2024-03-07T04:59:00;2.40;;;1.60;;
6149;SDS011;3106;42.670;23.318;2024-03-07T05:01:27;1.90;;;1.70;;
6149;SDS011;3106;42.670;23.318;2024-03-07T05:03:53;2.50;;;1.80;;
6149;SDS011;3106;42.670;23.318;2024-03-07T05:06:20;2.07;;;1.73;;
6149;SDS011;3106;42.670;23.318;2024-03-07T05:08:46;4.57;;;2.10;;
6149;SDS011;3106;42.670;23.318;2024-03-07T05:11:13;2.70;;;2.00;;
6149;SDS011;3106;42.670;23.318;2024-03-07T05:13:42;3.53;;;2.13;;
6149;SDS011;3106;42.670;23.318;2024-03-07T05:16:08;3.30;;;2.23;;
6149;SDS011;3106;42.670;23.318;2024-03-07T05:18:35;2.30;;;2.10;;
6149;SDS011;3106;42.670;23.318;2024-03-07T05:21:02;3.23;;;2.33;;
6149;SDS011;3106;42.670;23.318;2024-03-07T05:23:49;2.87;;;2.30;;
6149;SDS011;3106;42.670;23.318;2024-03-07T05:26:18;4.30;;;2.30;;
6149;SDS011;3106;42.670;23.318;2024-03-07T05:28:46;2.83;;;2.53;;
6149;SDS011;3106;42.670;23.318;2024-03-07T05:31:12;3.30;;;2.90;;
6149;SDS011;3106;42.670;23.318;2024-03-07T05:33:39;3.13;;;2.77;;
6149;SDS011;3106;42.670;23.318;2024-03-07T05:36:07;4.90;;;2.90;;
6149;SDS011;3106;42.670;23.318;2024-03-07T05:38:40;3.60;;;2.80;;
6149;SDS011;3106;42.670;23.318;2024-03-07T05:41:09;5.50;;;3.10;;
6149;SDS011;3106;42.670;23.318;2024-03-07T05:43:37;4.27;;;3.10;;
6149;SDS011;3106;42.670;23.318;2024-03-07T05:46:05;3.67;;;2.83;;
6149;SDS011;3106;42.670;23.318;2024-03-07T05:48:35;5.67;;;3.63;;
6149;SDS011;3106;42.670;23.318;2024-03-07T05:51:03;5.30;;;3.30;;
6149;SDS011;3106;42.670;23.318;2024-03-07T05:53:30;7.70;;;4.27;;
6149;SDS011;3106;42.670;23.318;2024-03-07T05:55:59;5.03;;;3.93;;
6149;SDS011;3106;42.670;23.318;2024-03-07T05:58:28;4.73;;;3.53;;
6149;SDS011;3106;42.670;23.318;2024-03-07T06:01:00;7.23;;;4.10;;
6149;SDS011;3106;42.670;23.318;2024-03-07T06:03:28;5.73;;;3.77;;
6149;SDS011;3106;42.670;23.318;2024-03-07T06:05:57;4.33;;;2.90;;
6149;SDS011;3106;42.670;23.318;2024-03-07T06:08:24;3.03;;;2.70;;
6149;SDS011;3106;42.670;23.318;2024-03-07T06:10:51;6.70;;;3.10;;
6149;SDS011;3106;42.670;23.318;2024-03-07T06:13:17;5.77;;;3.30;;
6149;SDS011;3106;42.670;23.318;2024-03-07T06:15:46;3.97;;;3.20;;
6149;SDS011;3106;42.670;23.318;2024-03-07T06:18:13;4.67;;;3.67;;
6149;SDS011;3106;42.670;23.318;2024-03-07T06:20:44;4.37;;;3.27;;
6149;SDS011;3106;42.670;23.318;2024-03-07T06:23:12;17.77;;;9.60;;
6149;SDS011;3106;42.670;23.318;2024-03-07T06:25:41;6.77;;;3.93;;
6149;SDS011;3106;42.670;23.318;2024-03-07T06:28:15;7.27;;;3.20;;
6149;SDS011;3106;42.670;23.318;2024-03-07T06:30:43;4.13;;;3.10;;
6149;SDS011;3106;42.670;23.318;2024-03-07T06:33:11;6.07;;;3.40;;
6149;SDS011;3106;42.670;23.318;2024-03-07T06:35:39;4.70;;;3.20;;
6149;SDS011;3106;42.670;23.318;2024-03-07T06:38:08;6.00;;;3.90;;
6149;SDS011;3106;42.670;23.318;2024-03-07T06:40:35;5.73;;;3.77;;
6149;SDS011;3106;42.670;23.318;2024-03-07T06:43:05;18.07;;;5.50;;
6149;SDS011;3106;42.670;23.318;2024-03-07T06:45:35;15.40;;;7.67;;
6149;SDS011;3106;42.670;23.318;2024-03-07T06:48:02;14.37;;;7.47;;
6149;SDS011;3106;42.670;23.318;2024-03-07T06:50:30;11.80;;;5.40;;
6149;SDS011;3106;42.670;23.318;2024-03-07T06:52:56;11.63;;;6.20;;
6149;SDS011;3106;42.670;23.318;2024-03-07T06:55:24;8.17;;;5.20;;
6149;SDS011;3106;42.670;23.318;2024-03-07T06:57:52;9.67;;;6.40;;
6149;SDS011;3106;42.670;23.318;2024-03-07T07:00:19;11.47;;;6.23;;
6149;SDS011;3106;42.670;23.318;2024-03-07T07:02:46;11.30;;;5.27;;
6149;SDS011;3106;42.670;23.318;2024-03-07T07:05:14;9.50;;;5.60;;
6149;SDS011;3106;42.670;23.318;2024-03-07T07:07:43;9.30;;;5.90;;
6149;SDS011;3106;42.670;23.318;2024-03-07T07:10:10;9.17;;;4.83;;
6149;SDS011;3106;42.670;23.318;2024-03-07T07:12:42;11.37;;;6.13;;
6149;SDS011;3106;42.670;23.318;2024-03-07T07:15:10;10.07;;;6.37;;
6149;SDS011;3106;42.670;23.318;2024-03-07T07:17:37;10.47;;;6.57;;
6149;SDS011;3106;42.670;23.318;2024-03-07T07:20:05;12.03;;;6.33;;
6149;SDS011;3106;42.670;23.318;2024-03-07T07:22:35;10.63;;;5.73;;
6149;SDS011;3106;42.670;23.318;2024-03-07T07:25:02;9.73;;;5.37;;
6149;SDS011;3106;42.670;23.318;2024-03-07T07:27:30;13.90;;;4.83;;
6149;SDS011;3106;42.670;23.318;2024-03-07T07:29:58;8.37;;;5.07;;
6149;SDS011;3106;42.670;23.318;2024-03-07T07:32:24;6.73;;;4.50;;
6149;SDS011;3106;42.670;23.318;2024-03-07T07:34:52;7.67;;;5.07;;
6149;SDS011;3106;42.670;23.318;2024-03-07T07:37:19;10.43;;;5.60;;
6149;SDS011;3106;42.670;23.318;2024-03-07T07:39:46;5.30;;;3.93;;
6149;SDS011;3106;42.670;23.318;2024-03-07T07:42:12;7.93;;;4.37;;
6149;SDS011;3106;42.670;23.318;2024-03-07T07:44:39;4.17;;;3.30;;
6149;SDS011;3106;42.670;23.318;2024-03-07T07:47:09;5.40;;;3.50;;
6149;SDS011;3106;42.670;23.318;2024-03-07T07:49:37;6.10;;;3.93;;
6149;SDS011;3106;42.670;23.318;2024-03-07T07:52:04;4.63;;;3.53;;
6149;SDS011;3106;42.670;23.318;2024-03-07T07:54:34;4.97;;;3.27;;
6149;SDS011;3106;42.670;23.318;2024-03-07T07:57:01;5.97;;;3.33;;
6149;SDS011;3106;42.670;23.318;2024-03-07T07:59:28;6.17;;;4.53;;
6149;SDS011;3106;42.670;23.318;2024-03-07T08:01:56;6.73;;;5.13;;
6149;SDS011;3106;42.670;23.318;2024-03-07T08:04:24;10.20;;;5.10;;
6149;SDS011;3106;42.670;23.318;2024-03-07T08:06:51;11.10;;;5.63;;
6149;SDS011;3106;42.670;23.318;2024-03-07T08:09:17;11.93;;;5.97;;
6149;SDS011;3106;42.670;23.318;2024-03-07T08:11:44;9.60;;;5.60;;
6149;SDS011;3106;42.670;23.318;2024-03-07T08:14:11;10.37;;;5.20;;
6149;SDS011;3106;42.670;23.318;2024-03-07T08:16:38;8.00;;;4.70;;
6149;SDS011;3106;42.670;23.318;2024-03-07T08:19:05;8.10;;;4.67;;
6149;SDS011;3106;42.670;23.318;2024-03-07T08:21:35;9.33;;;5.20;;
6149;SDS011;3106;42.670;23.318;2024-03-07T08:24:02;7.30;;;4.60;;
6149;SDS011;3106;42.670;23.318;2024-03-07T08:26:36;4.70;;;3.87;;
6149;SDS011;3106;42.670;23.318;2024-03-07T08:29:03;16.73;;;4.67;;
6149;SDS011;3106;42.670;23.318;2024-03-07T08:31:30;8.00;;;5.10;;
6149;SDS011;3106;42.670;23.318;2024-03-07T08:33:57;9.67;;;5.63;;
6149;SDS011;3106;42.670;23.318;2024-03-07T08:36:26;7.27;;;4.83;;
6149;SDS011;3106;42.670;23.318;2024-03-07T08:38:54;8.30;;;4.80;;
6149;SDS011;3106;42.670;23.318;2024-03-07T08:41:20;8.10;;;4.93;;
6149;SDS011;3106;42.670;23.318;2024-03-07T08:43:47;7.37;;;4.90;;
6149;SDS011;3106;42.670;23.318;2024-03-07T08:46:14;9.50;;;5.00;;
6149;SDS011;3106;42.670;23.318;2024-03-07T08:48:41;6.83;;;5.33;;
6149;SDS011;3106;42.670;23.318;2024-03-07T08:51:08;14.30;;;5.10;;
6149;SDS011;3106;42.670;23.318;2024-03-07T08:53:34;5.37;;;3.80;;
6149;SDS011;3106;42.670;23.318;2024-03-07T08:56:08;5.23;;;3.93;;
6149;SDS011;3106;42.670;23.318;2024-03-07T08:58:35;5.03;;;3.70;;
6149;SDS011;3106;42.670;23.318;2024-03-07T09:01:02;5.90;;;4.10;;
6149;SDS011;3106;42.670;23.318;2024-03-07T09:03:30;8.73;;;4.60;;
6149;SDS011;3106;42.670;23.318;2024-03-07T09:05:56;8.87;;;3.70;;
6149;SDS011;3106;42.670;23.318;2024-03-07T09:08:23;7.00;;;4.80;;
6149;SDS011;3106;42.670;23.318;2024-03-07T09:10:51;7.40;;;4.37;;
6149;SDS011;3106;42.670;23.318;2024-03-07T09:13:21;5.53;;;3.73;;
6149;SDS011;3106;42.670;23.318;2024-03-07T09:15:48;7.17;;;4.70;;
6149;SDS011;3106;42.670;23.318;2024-03-07T09:18:15;10.30;;;3.80;;
6149;SDS011;3106;42.670;23.318;2024-03-07T09:20:44;6.30;;;3.67;;
6149;SDS011;3106;42.670;23.318;2024-03-07T09:23:11;11.37;;;4.30;;
6149;SDS011;3106;42.670;23.318;2024-03-07T09:25:37;5.40;;;3.50;;
6149;SDS011;3106;42.670;23.318;2024-03-07T09:28:05;5.20;;;3.97;;
6149;SDS011;3106;42.670;23.318;2024-03-07T09:30:33;6.77;;;4.60;;
6149;SDS011;3106;42.670;23.318;2024-03-07T09:33:03;8.07;;;4.30;;
6149;SDS011;3106;42.670;23.318;2024-03-07T09:35:30;8.33;;;4.73;;
6149;SDS011;3106;42.670;23.318;2024-03-07T09:37:59;8.67;;;4.57;;
6149;SDS011;3106;42.670;23.318;2024-03-07T09:40:25;10.10;;;5.20;;
6149;SDS011;3106;42.670;23.318;2024-03-07T09:42:53;11.07;;;5.47;;
6149;SDS011;3106;42.670;23.318;2024-03-07T09:45:23;10.83;;;6.17;;
6149;SDS011;3106;42.670;23.318;2024-03-07T09:47:56;9.27;;;5.60;;
6149;SDS011;3106;42.670;23.318;2024-03-07T09:50:23;9.67;;;6.47;;
6149;SDS011;3106;42.670;23.318;2024-03-07T09:52:53;8.30;;;5.50;;
6149;SDS011;3106;42.670;23.318;2024-03-07T09:55:19;10.50;;;5.33;;
6149;SDS011;3106;42.670;23.318;2024-03-07T09:57:49;10.50;;;5.43;;
6149;SDS011;3106;42.670;23.318;2024-03-07T10:00:18;11.17;;;6.47;;
6149;SDS011;3106;42.670;23.318;2024-03-07T10:02:50;9.67;;;6.07;;
6149;SDS011;3106;42.670;23.318;2024-03-07T10:05:22;7.63;;;5.40;;
6149;SDS011;3106;42.670;23.318;2024-03-07T10:07:52;10.37;;;6.60;;
6149;SDS011;3106;42.670;23.318;2024-03-07T10:10:20;14.80;;;6.27;;
6149;SDS011;3106;42.670;23.318;2024-03-07T10:12:47;9.20;;;5.83;;
6149;SDS011;3106;42.670;23.318;2024-03-07T10:15:14;12.00;;;5.43;;
6149;SDS011;3106;42.670;23.318;2024-03-07T10:17:42;7.57;;;5.60;;
6149;SDS011;3106;42.670;23.318;2024-03-07T10:20:11;9.97;;;5.87;;
6149;SDS011;3106;42.670;23.318;2024-03-07T10:22:44;9.90;;;6.40;;
6149;SDS011;3106;42.670;23.318;2024-03-07T10:25:11;9.73;;;6.13;;
6149;SDS011;3106;42.670;23.318;2024-03-07T10:27:38;7.50;;;5.40;;
6149;SDS011;3106;42.670;23.318;2024-03-07T10:30:05;21.80;;;5.90;;
6149;SDS011;3106;42.670;23.318;2024-03-07T10:32:33;8.07;;;5.17;;
6149;SDS011;3106;42.670;23.318;2024-03-07T10:35:03;14.63;;;5.63;;
6149;SDS011;3106;42.670;23.318;2024-03-07T10:37:34;16.47;;;7.10;;
6149;SDS011;3106;42.670;23.318;2024-03-07T10:40:03;10.00;;;6.30;;
6149;SDS011;3106;42.670;23.318;2024-03-07T10:42:41;10.23;;;6.53;;
6149;SDS011;3106;42.670;23.318;2024-03-07T10:45:12;11.37;;;5.27;;
6149;SDS011;3106;42.670;23.318;2024-03-07T10:47:42;10.77;;;6.10;;
6149;SDS011;3106;42.670;23.318;2024-03-07T10:50:13;9.70;;;6.60;;
6149;SDS011;3106;42.670;23.318;2024-03-07T10:52:48;9.50;;;7.17;;
6149;SDS011;3106;42.670;23.318;2024-03-07T10:55:23;9.60;;;6.67;;
6149;SDS011;3106;42.670;23.318;2024-03-07T10:58:02;9.53;;;7.10;;
6149;SDS011;3106;42.670;23.318;2024-03-07T11:00:36;12.00;;;7.20;;
6149;SDS011;3106;42.670;23.318;2024-03-07T11:03:11;7.93;;;5.50;;
6149;SDS011;3106;42.670;23.318;2024-03-07T11:05:39;12.10;;;5.77;;
6149;SDS011;3106;42.670;23.318;2024-03-07T11:08:08;11.10;;;5.83;;
6149;SDS011;3106;42.670;23.318;2024-03-07T11:10:40;7.03;;;5.40;;
6149;SDS011;3106;42.670;23.318;2024-03-07T11:13:07;10.80;;;6.07;;
6149;SDS011;3106;42.670;23.318;2024-03-07T11:15:36;15.47;;;4.60;;
6149;SDS011;3106;42.670;23.318;2024-03-07T11:18:07;7.03;;;4.23;;
6149;SDS011;3106;42.670;23.318;2024-03-07T11:20:35;7.23;;;4.97;;
6149;SDS011;3106;42.670;23.318;2024-03-07T11:25:54;6.30;;;4.00;;
6149;SDS011;3106;42.670;23.318;2024-03-07T11:28:28;12.87;;;4.50;;
6149;SDS011;3106;42.670;23.318;2024-03-07T11:31:07;7.47;;;4.97;;
6149;SDS011;3106;42.670;23.318;2024-03-07T11:33:36;8.83;;;4.43;;
6149;SDS011;3106;42.670;23.318;2024-03-07T11:36:07;12.77;;;5.23;;
6149;SDS011;3106;42.670;23.318;2024-03-07T11:38:34;8.50;;;5.60;;
6149;SDS011;3106;42.670;23.318;2024-03-07T11:41:04;14.17;;;5.47;;
6149;SDS011;3106;42.670;23.318;2024-03-07T11:43:33;11.90;;;5.20;;
6149;SDS011;3106;42.670;23.318;2024-03-07T11:46:00;13.43;;;8.60;;
6149;SDS011;3106;42.670;23.318;2024-03-07T11:48:27;10.97;;;5.20;;
6149;SDS011;3106;42.670;23.318;2024-03-07T11:50:56;8.17;;;5.30;;
6149;SDS011;3106;42.670;23.318;2024-03-07T11:53:23;9.43;;;4.77;;
6149;SDS011;3106;42.670;23.318;2024-03-07T11:55:50;7.67;;;5.07;;
6149;SDS011;3106;42.670;23.318;2024-03-07T11:58:21;10.37;;;4.87;;
6149;SDS011;3106;42.670;23.318;2024-03-07T12:00:50;10.37;;;4.70;;
6149;SDS011;3106;42.670;23.318;2024-03-07T12:03:18;9.97;;;4.63;;
6149;SDS011;3106;42.670;23.318;2024-03-07T12:05:46;10.53;;;6.30;;
6149;SDS011;3106;42.670;23.318;2024-03-07T12:08:14;19.27;;;5.77;;
6149;SDS011;3106;42.670;23.318;2024-03-07T12:10:42;9.80;;;6.00;;
6149;SDS011;3106;42.670;23.318;2024-03-07T12:13:10;10.00;;;4.80;;
6149;SDS011;3106;42.670;23.318;2024-03-07T12:15:42;8.87;;;4.90;;
6149;SDS011;3106;42.670;23.318;2024-03-07T12:18:13;7.37;;;4.67;;
6149;SDS011;3106;42.670;23.318;2024-03-07T12:20:43;10.17;;;4.73;;
6149;SDS011;3106;42.670;23.318;2024-03-07T12:23:19;9.90;;;5.10;;
6149;SDS011;3106;42.670;23.318;2024-03-07T12:25:46;9.20;;;4.80;;
6149;SDS011;3106;42.670;23.318;2024-03-07T12:28:13;10.50;;;4.63;;
6149;SDS011;3106;42.670;23.318;2024-03-07T12:30:50;8.50;;;4.17;;
6149;SDS011;3106;42.670;23.318;2024-03-07T12:33:18;11.83;;;4.90;;
6149;SDS011;3106;42.670;23.318;2024-03-07T12:35:48;6.20;;;4.63;;
6149;SDS011;3106;42.670;23.318;2024-03-07T12:38:17;12.33;;;5.00;;
6149;SDS011;3106;42.670;23.318;2024-03-07T12:40:44;13.07;;;5.50;;
6149;SDS011;3106;42.670;23.318;2024-03-07T12:43:12;8.40;;;4.80;;
6149;SDS011;3106;42.670;23.318;2024-03-07T12:45:42;7.43;;;4.80;;
6149;SDS011;3106;42.670;23.318;2024-03-07T12:48:12;8.97;;;4.97;;
6149;SDS011;3106;42.670;23.318;2024-03-07T12:50:40;7.90;;;4.93;;
6149;SDS011;3106;42.670;23.318;2024-03-07T12:53:07;8.90;;;5.63;;
6149;SDS011;3106;42.670;23.318;2024-03-07T12:55:37;11.80;;;6.00;;
6149;SDS011;3106;42.670;23.318;2024-03-07T12:58:06;12.77;;;6.30;;
6149;SDS011;3106;42.670;23.318;2024-03-07T13:00:34;13.70;;;7.17;;
6149;SDS011;3106;42.670;23.318;2024-03-07T13:03:01;22.73;;;7.73;;
6149;SDS011;3106;42.670;23.318;2024-03-07T13:05:31;11.67;;;7.07;;
6149;SDS011;3106;42.670;23.318;2024-03-07T13:07:58;13.73;;;7.20;;
6149;SDS011;3106;42.670;23.318;2024-03-07T13:10:27;14.33;;;6.60;;
6149;SDS011;3106;42.670;23.318;2024-03-07T13:12:55;9.67;;;6.33;;
6149;SDS011;3106;42.670;23.318;2024-03-07T13:15:22;11.57;;;7.40;;
6149;SDS011;3106;42.670;23.318;2024-03-07T13:17:50;12.30;;;7.70;;
6149;SDS011;3106;42.670;23.318;2024-03-07T13:20:18;15.67;;;7.93;;
6149;SDS011;3106;42.670;23.318;2024-03-07T13:22:48;15.60;;;8.70;;
6149;SDS011;3106;42.670;23.318;2024-03-07T13:25:16;14.97;;;6.87;;
6149;SDS011;3106;42.670;23.318;2024-03-07T13:27:51;16.33;;;7.40;;
6149;SDS011;3106;42.670;23.318;2024-03-07T13:30:21;16.33;;;6.30;;
6149;SDS011;3106;42.670;23.318;2024-03-07T13:32:53;13.00;;;6.43;;
6149;SDS011;3106;42.670;23.318;2024-03-07T13:35:21;11.73;;;5.97;;
6149;SDS011;3106;42.670;23.318;2024-03-07T13:37:50;12.80;;;7.60;;
6149;SDS011;3106;42.670;23.318;2024-03-07T13:40:17;10.70;;;5.47;;
6149;SDS011;3106;42.670;23.318;2024-03-07T13:42:53;11.53;;;5.43;;
6149;SDS011;3106;42.670;23.318;2024-03-07T13:45:21;9.07;;;5.60;;
6149;SDS011;3106;42.670;23.318;2024-03-07T13:47:49;9.17;;;5.77;;
6149;SDS011;3106;42.670;23.318;2024-03-07T13:50:17;15.27;;;7.20;;
6149;SDS011;3106;42.670;23.318;2024-03-07T13:52:48;12.63;;;6.80;;
6149;SDS011;3106;42.670;23.318;2024-03-07T13:55:38;15.20;;;9.67;;
6149;SDS011;3106;42.670;23.318;2024-03-07T13:58:15;20.93;;;8.27;;
6149;SDS011;3106;42.670;23.318;2024-03-07T14:00:57;12.93;;;6.93;;
6149;SDS011;3106;42.670;23.318;2024-03-07T14:03:51;10.60;;;5.33;;
6149;SDS011;3106;42.670;23.318;2024-03-07T14:06:48;12.80;;;4.97;;
6149;SDS011;3106;42.670;23.318;2024-03-07T14:09:35;16.40;;;6.60;;
6149;SDS011;3106;42.670;23.318;2024-03-07T14:12:29;12.17;;;6.07;;
6149;SDS011;3106;42.670;23.318;2024-03-07T14:15:19;14.10;;;7.17;;
6149;SDS011;3106;42.670;23.318;2024-03-07T14:18:19;16.50;;;7.93;;
6149;SDS011;3106;42.670;23.318;2024-03-07T14:27:43;16.87;;;9.10;;
6149;SDS011;3106;42.670;23.318;2024-03-07T14:30:24;20.83;;;8.47;;
6149;SDS011;3106;42.670;23.318;2024-03-07T14:33:05;16.40;;;8.70;;
6149;SDS011;3106;42.670;23.318;2024-03-07T14:35:34;22.53;;;11.23;;
6149;SDS011;3106;42.670;23.318;2024-03-07T14:38:23;19.27;;;10.67;;
6149;SDS011;3106;42.670;23.318;2024-03-07T14:40:57;18.40;;;10.07;;
6149;SDS011;3106;42.670;23.318;2024-03-07T14:43:25;17.57;;;10.63;;
6149;SDS011;3106;42.670;23.318;2024-03-07T14:45:53;15.43;;;9.73;;
6149;SDS011;3106;42.670;23.318;2024-03-07T14:48:21;21.70;;;10.73;;
6149;SDS011;3106;42.670;23.318;2024-03-07T14:50:48;11.50;;;6.70;;
6149;SDS011;3106;42.670;23.318;2024-03-07T14:53:16;24.30;;;11.97;;
6149;SDS011;3106;42.670;23.318;2024-03-07T14:55:45;20.43;;;9.90;;
6149;SDS011;3106;42.670;23.318;2024-03-07T14:58:12;14.07;;;7.60;;
6149;SDS011;3106;42.670;23.318;2024-03-07T15:00:42;15.83;;;8.23;;
6149;SDS011;3106;42.670;23.318;2024-03-07T15:03:14;18.00;;;9.03;;
6149;SDS011;3106;42.670;23.318;2024-03-07T15:05:44;23.90;;;9.40;;
6149;SDS011;3106;42.670;23.318;2024-03-07T15:08:11;20.30;;;9.83;;
6149;SDS011;3106;42.670;23.318;2024-03-07T15:10:42;21.00;;;10.37;;
6149;SDS011;3106;42.670;23.318;2024-03-07T15:13:12;18.43;;;10.73;;